createdAt,value
2018-11-26T00:00:35.737Z,6.77
2018-11-26T00:03:12.186Z,6.70
2018-11-26T00:05:43.478Z,6.90
2018-11-26T00:08:14.765Z,6.87
2018-11-26T00:11:07.142Z,6.87
2018-11-26T00:13:38.062Z,6.60
2018-11-26T00:16:10.120Z,6.87
2018-11-26T00:18:41.419Z,6.67
2018-11-26T00:21:13.246Z,8.17
2018-11-26T00:23:46.477Z,7.87
2018-11-26T00:26:20.101Z,11.40
2018-11-26T00:28:51.237Z,10.90
2018-11-26T00:31:26.448Z,8.57
2018-11-26T00:33:58.415Z,9.17
2018-11-26T00:36:30.619Z,8.87
2018-11-26T00:39:02.351Z,8.37
2018-11-26T00:41:34.633Z,6.43
2018-11-26T00:44:06.013Z,8.63
2018-11-26T00:46:39.062Z,6.07
2018-11-26T00:49:11.264Z,5.97
2018-11-26T00:51:42.997Z,7.17
2018-11-26T00:54:17.781Z,6.10
2018-11-26T00:56:49.994Z,5.53
2018-11-26T00:59:22.813Z,5.33
2018-11-26T01:05:01.821Z,4.83
2018-11-26T01:07:32.500Z,7.13
2018-11-26T01:10:05.703Z,6.87
2018-11-26T01:12:37.278Z,5.70
2018-11-26T01:15:11.251Z,4.93
2018-11-26T01:17:43.277Z,5.43
2018-11-26T01:20:14.069Z,5.37
2018-11-26T01:22:45.089Z,5.90
2018-11-26T01:25:17.808Z,6.00
2018-11-26T01:27:49.061Z,4.43
2018-11-26T01:30:21.390Z,5.33
2018-11-26T01:32:52.129Z,5.20
2018-11-26T01:35:23.019Z,5.13
2018-11-26T01:37:53.986Z,4.80
2018-11-26T01:40:31.392Z,4.90
2018-11-26T01:43:03.747Z,5.80
2018-11-26T01:45:36.427Z,6.20
2018-11-26T01:48:07.289Z,4.87
2018-11-26T01:50:38.366Z,5.80
2018-11-26T01:53:11.401Z,5.97
2018-11-26T01:55:43.822Z,7.80
2018-11-26T01:58:16.377Z,5.03
2018-11-26T02:00:48.484Z,5.13
2018-11-26T02:03:20.831Z,5.50
2018-11-26T02:05:52.630Z,6.37
2018-11-26T02:08:23.804Z,3.97
2018-11-26T02:10:57.327Z,5.10
2018-11-26T02:13:29.096Z,5.57
2018-11-26T02:16:01.269Z,5.43
2018-11-26T02:18:32.074Z,5.90
2018-11-26T02:21:03.234Z,6.37
2018-11-26T02:23:34.053Z,5.93
2018-11-26T02:26:05.833Z,7.20
2018-11-26T02:28:36.773Z,5.40
2018-11-26T02:31:07.653Z,5.23
2018-11-26T02:33:39.198Z,7.03
2018-11-26T02:36:10.029Z,6.33
2018-11-26T02:38:42.329Z,5.87
2018-11-26T02:41:14.991Z,6.73
2018-11-26T02:43:46.611Z,6.77
2018-11-26T02:46:19.568Z,6.30
2018-11-26T02:48:50.093Z,6.00
2018-11-26T02:51:20.637Z,4.63
2018-11-26T02:53:51.320Z,5.50
2018-11-26T02:56:23.854Z,6.77
2018-11-26T02:58:57.589Z,5.93
2018-11-26T03:01:28.140Z,4.67
2018-11-26T03:04:02.090Z,6.73
2018-11-26T03:19:06.641Z,12.07
2018-11-26T03:21:37.640Z,7.53
2018-11-26T03:24:10.161Z,9.63
2018-11-26T03:26:42.204Z,6.70
2018-11-26T03:29:13.903Z,4.53
2018-11-26T03:31:44.769Z,4.80
2018-11-26T03:34:16.497Z,4.17
2018-11-26T03:36:49.433Z,5.07
2018-11-26T03:39:21.897Z,6.03
2018-11-26T03:41:53.033Z,5.77
2018-11-26T03:44:25.851Z,4.60
2018-11-26T03:46:58.005Z,4.40
2018-11-26T03:49:31.242Z,3.80
2018-11-26T03:52:02.426Z,3.33
2018-11-26T03:54:35.832Z,3.50
2018-11-26T03:57:10.329Z,3.77
2018-11-26T03:59:41.609Z,3.73
2018-11-26T04:02:13.636Z,3.03
2018-11-26T04:04:45.942Z,6.67
2018-11-26T04:07:16.951Z,3.37
2018-11-26T04:09:48.253Z,2.73
2018-11-26T04:12:19.030Z,2.93
2018-11-26T04:14:50.131Z,4.20
2018-11-26T04:17:22.215Z,4.60
2018-11-26T04:19:55.451Z,3.27
2018-11-26T04:22:26.279Z,4.60
2018-11-26T04:24:57.192Z,2.80
2018-11-26T04:27:29.355Z,2.40
2018-11-26T04:30:00.749Z,3.67
2018-11-26T04:32:31.571Z,2.87
2018-11-26T04:35:06.499Z,2.67
2018-11-26T04:37:37.272Z,2.77
2018-11-26T04:40:10.502Z,2.37
2018-11-26T04:42:41.466Z,3.97
2018-11-26T04:45:13.911Z,3.33
2018-11-26T04:47:47.105Z,3.50
2018-11-26T04:50:19.859Z,3.20
2018-11-26T04:52:51.284Z,5.57
2018-11-26T04:55:22.563Z,2.60
2018-11-26T04:57:56.781Z,4.07
2018-11-26T05:00:29.813Z,4.13
2018-11-26T05:03:01.188Z,3.73
2018-11-26T05:05:35.141Z,4.07
2018-11-26T05:08:08.422Z,3.30
2018-11-26T05:10:38.873Z,2.27
2018-11-26T05:13:12.145Z,4.43
2018-11-26T05:15:44.436Z,8.70
2018-11-26T05:21:22.720Z,4.43
2018-11-26T05:23:53.879Z,2.87
2018-11-26T05:26:25.174Z,6.73
2018-11-26T05:29:03.345Z,3.83
2018-11-26T05:31:34.552Z,6.13
2018-11-26T05:34:05.602Z,3.37
2018-11-26T05:36:36.304Z,3.47
2018-11-26T05:39:10.049Z,3.77
2018-11-26T05:41:40.822Z,3.80
2018-11-26T05:44:11.806Z,2.83
2018-11-26T05:46:44.464Z,4.40
2018-11-26T05:49:15.813Z,2.53
2018-11-26T05:51:47.022Z,4.03
2018-11-26T05:54:17.926Z,4.20
2018-11-26T05:56:48.817Z,4.27
2018-11-26T05:59:19.694Z,6.87
2018-11-26T06:01:50.236Z,7.20
2018-11-26T06:04:21.849Z,4.23
2018-11-26T06:06:56.411Z,4.93
2018-11-26T06:09:28.177Z,4.03
2018-11-26T06:11:59.437Z,4.10
2018-11-26T06:14:30.210Z,3.83
2018-11-26T06:17:02.119Z,3.80
2018-11-26T06:19:33.522Z,2.87
2018-11-26T06:22:05.243Z,4.80
2018-11-26T06:24:36.229Z,1.80
2018-11-26T06:27:07.314Z,2.33
2018-11-26T06:29:37.988Z,3.37
2018-11-26T06:32:23.412Z,2.17
2018-11-26T06:34:53.532Z,2.33
2018-11-26T06:37:25.308Z,2.90
2018-11-26T06:39:58.055Z,3.27
2018-11-26T06:42:30.575Z,1.83
2018-11-26T06:45:04.327Z,3.93
2018-11-26T06:47:34.881Z,4.87
2018-11-26T06:50:08.563Z,2.37
2018-11-26T06:52:42.409Z,3.30
2018-11-26T06:55:17.031Z,5.27
2018-11-26T06:57:47.776Z,2.17
2018-11-26T07:00:19.954Z,3.70
2018-11-26T07:02:52.571Z,2.77
2018-11-26T07:05:24.273Z,1.70
2018-11-26T07:07:54.766Z,1.50
2018-11-26T07:10:26.997Z,2.17
2018-11-26T07:12:57.503Z,1.60
2018-11-26T07:15:30.205Z,3.07
2018-11-26T07:18:03.475Z,1.87
2018-11-26T07:26:56.759Z,2.93
2018-11-26T07:29:28.480Z,2.53
2018-11-26T07:32:01.590Z,3.47
2018-11-26T07:34:32.632Z,3.63
2018-11-26T07:37:03.488Z,4.13
2018-11-26T07:39:33.995Z,2.30
2018-11-26T07:42:06.049Z,2.30
2018-11-26T07:44:36.476Z,1.57
2018-11-26T07:47:08.313Z,1.27
2018-11-26T07:49:43.617Z,1.53
2018-11-26T07:52:17.864Z,1.63
2018-11-26T07:54:49.744Z,2.10
2018-11-26T07:57:20.921Z,2.30
2018-11-26T07:59:54.358Z,4.30
2018-11-26T08:05:06.385Z,3.00
2018-11-26T08:07:39.713Z,3.37
2018-11-26T08:10:16.095Z,2.63
2018-11-26T08:12:48.751Z,5.43
2018-11-26T08:15:25.915Z,4.00
2018-11-26T08:17:56.937Z,2.93
2018-11-26T08:20:28.929Z,1.60
2018-11-26T08:22:59.957Z,3.20
2018-11-26T08:25:33.390Z,3.47
2018-11-26T08:28:05.326Z,2.07
2018-11-26T08:30:36.344Z,2.13
2018-11-26T08:33:08.487Z,1.47
2018-11-26T08:35:41.385Z,3.17
2018-11-26T08:38:18.353Z,1.80
2018-11-26T08:40:53.885Z,1.40
2018-11-26T08:43:30.040Z,2.17
2018-11-26T08:46:05.877Z,1.83
2018-11-26T08:48:47.694Z,1.40
2018-11-26T08:51:19.538Z,1.63
2018-11-26T08:53:54.171Z,1.87
2018-11-26T08:56:27.528Z,1.73
2018-11-26T08:58:58.049Z,1.70
2018-11-26T09:01:41.478Z,2.40
2018-11-26T09:05:23.747Z,3.03
2018-11-26T09:08:03.036Z,2.87
2018-11-26T09:10:34.239Z,2.93
2018-11-26T09:13:05.790Z,3.27
2018-11-26T09:15:36.996Z,1.37
2018-11-26T09:18:07.635Z,1.37
2018-11-26T09:20:40.853Z,2.27
2018-11-26T09:23:11.612Z,3.07
2018-11-26T09:25:42.082Z,3.10
2018-11-26T09:28:15.974Z,2.57
2018-11-26T09:30:46.542Z,2.17
2018-11-26T09:33:20.443Z,5.93
2018-11-26T09:35:51.602Z,1.93
2018-11-26T09:38:22.110Z,3.73
2018-11-26T09:40:54.718Z,3.10
2018-11-26T09:43:28.256Z,2.27
2018-11-26T09:46:02.527Z,2.57
2018-11-26T09:48:33.436Z,2.07
2018-11-26T09:51:14.195Z,2.17
2018-11-26T09:53:39.828Z,2.10
2018-11-26T09:56:11.474Z,1.97
2018-11-26T09:58:43.418Z,2.63
2018-11-26T10:01:16.348Z,3.07
2018-11-26T10:03:47.069Z,2.90
2018-11-26T10:06:18.400Z,4.10
2018-11-26T10:08:48.902Z,2.17
2018-11-26T10:11:20.753Z,2.43
2018-11-26T10:13:52.063Z,2.23
2018-11-26T10:16:25.846Z,2.27
2018-11-26T10:18:57.701Z,3.70
2018-11-26T10:21:28.137Z,3.13
2018-11-26T10:24:00.682Z,1.80
2018-11-26T10:26:31.156Z,2.57
2018-11-26T10:29:03.016Z,6.60
2018-11-26T10:31:33.954Z,2.90
2018-11-26T10:34:04.729Z,1.67
2018-11-26T10:36:35.207Z,2.47
2018-11-26T10:39:09.427Z,2.53
2018-11-26T10:41:39.948Z,4.10
2018-11-26T10:44:14.157Z,6.10
2018-11-26T10:46:45.012Z,3.70
2018-11-26T10:49:15.477Z,2.13
2018-11-26T10:51:47.462Z,2.27
2018-11-26T10:54:18.741Z,3.30
2018-11-26T10:56:50.811Z,2.53
2018-11-26T10:59:21.614Z,2.57
2018-11-26T11:02:07.230Z,2.80
2018-11-26T11:04:43.647Z,3.00
2018-11-26T11:07:13.621Z,4.17
2018-11-26T11:09:44.092Z,3.73
2018-11-26T11:12:16.343Z,3.07
2018-11-26T11:14:48.573Z,3.20
2018-11-26T11:17:20.553Z,2.63
2018-11-26T11:19:51.397Z,3.23
2018-11-26T11:22:21.849Z,2.67
2018-11-26T11:24:53.336Z,2.50
2018-11-26T11:27:23.815Z,2.10
2018-11-26T11:29:56.944Z,4.03
2018-11-26T11:32:27.408Z,5.33
2018-11-26T11:35:00.423Z,1.80
2018-11-26T11:37:31.194Z,2.77
2018-11-26T11:40:01.979Z,1.97
2018-11-26T11:42:33.308Z,2.23
2018-11-26T11:45:06.418Z,1.70
2018-11-26T11:47:37.948Z,3.27
2018-11-26T11:50:27.695Z,4.47
2018-11-26T11:52:59.141Z,1.73
2018-11-26T11:55:29.869Z,3.70
2018-11-26T11:58:00.432Z,3.37
2018-11-26T12:00:36.071Z,2.20
2018-11-26T12:03:13.296Z,1.63
2018-11-26T12:05:45.457Z,2.17
2018-11-26T12:08:17.481Z,1.70
2018-11-26T12:10:47.952Z,1.77
2018-11-26T12:13:19.876Z,1.30
2018-11-26T12:15:53.826Z,1.20
2018-11-26T12:18:24.321Z,1.73
2018-11-26T12:20:56.901Z,2.63
2018-11-26T12:23:28.768Z,1.27
2018-11-26T12:26:00.410Z,2.43
2018-11-26T12:28:30.899Z,1.30
2018-11-26T12:31:03.431Z,2.57
2018-11-26T12:33:37.324Z,1.87
2018-11-26T12:36:09.431Z,2.33
2018-11-26T12:38:40.750Z,1.70
2018-11-26T12:41:12.939Z,2.00
2018-11-26T12:43:44.922Z,1.67
2018-11-26T12:46:15.721Z,2.97
2018-11-26T12:48:46.669Z,2.57
2018-11-26T12:51:18.434Z,1.43
2018-11-26T12:53:48.920Z,1.70
2018-11-26T12:56:20.512Z,2.10
2018-11-26T12:58:51.834Z,1.37
2018-11-26T13:01:25.582Z,1.77
2018-11-26T13:03:57.971Z,1.80
2018-11-26T13:06:30.542Z,1.43
2018-11-26T13:09:01.075Z,2.23
2018-11-26T13:11:32.504Z,1.10
2018-11-26T13:14:05.515Z,3.67
2018-11-26T13:16:36.060Z,1.53
2018-11-26T13:19:07.352Z,2.00
2018-11-26T13:21:38.814Z,2.10
2018-11-26T13:24:09.830Z,1.93
2018-11-26T13:26:42.053Z,1.90
2018-11-26T13:29:31.388Z,1.50
2018-11-26T13:32:02.178Z,5.97
2018-11-26T13:34:36.085Z,2.97
2018-11-26T13:37:08.431Z,3.60
2018-11-26T13:39:39.447Z,2.80
2018-11-26T13:42:10.843Z,1.93
2018-11-26T13:44:41.806Z,1.57
2018-11-26T13:47:13.021Z,3.13
2018-11-26T13:49:45.137Z,4.00
2018-11-26T13:52:16.199Z,2.47
2018-11-26T13:54:48.397Z,2.77
2018-11-26T13:57:19.563Z,2.60
2018-11-26T13:59:50.887Z,1.63
2018-11-26T14:02:21.822Z,1.83
2018-11-26T14:04:54.143Z,1.77
2018-11-26T14:07:25.494Z,1.47
2018-11-26T14:09:58.961Z,2.23
2018-11-26T14:12:29.831Z,2.23
2018-11-26T14:15:00.701Z,2.13
2018-11-26T14:17:32.099Z,3.63
2018-11-26T14:20:02.788Z,2.37
2018-11-26T14:22:33.486Z,2.43
2018-11-26T14:25:04.611Z,2.53
2018-11-26T14:27:35.130Z,2.17
2018-11-26T14:30:10.412Z,3.20
2018-11-26T14:32:41.127Z,2.30
2018-11-26T14:35:12.183Z,3.63
2018-11-26T14:37:43.952Z,5.17
2018-11-26T14:40:30.425Z,2.03
2018-11-26T14:43:01.599Z,1.67
2018-11-26T14:45:33.672Z,3.43
2018-11-26T14:48:04.591Z,4.67
2018-11-26T14:50:35.852Z,6.93
2018-11-26T14:53:09.323Z,4.67
2018-11-26T14:55:40.462Z,3.13
2018-11-26T14:58:11.803Z,1.67
2018-11-26T15:00:42.975Z,4.07
2018-11-26T15:03:13.961Z,2.20
2018-11-26T15:05:44.919Z,2.30
2018-11-26T15:08:16.188Z,3.57
2018-11-26T15:10:47.134Z,1.87
2018-11-26T15:13:18.650Z,3.13
2018-11-26T15:15:49.400Z,2.87
2018-11-26T15:18:20.027Z,2.03
2018-11-26T15:20:50.791Z,2.43
2018-11-26T15:23:21.690Z,2.07
2018-11-26T15:25:52.801Z,2.23
2018-11-26T15:28:23.458Z,4.43
2018-11-26T15:30:54.559Z,2.70
2018-11-26T15:33:25.539Z,2.40
2018-11-26T15:35:57.147Z,4.27
2018-11-26T15:38:28.483Z,4.53
2018-11-26T15:40:58.962Z,3.53
2018-11-26T15:43:31.291Z,2.60
2018-11-26T15:46:02.315Z,2.03
2018-11-26T15:48:33.266Z,2.30
2018-11-26T15:51:04.091Z,3.53
2018-11-26T15:53:35.050Z,2.53
2018-11-26T15:56:07.285Z,1.80
2018-11-26T15:58:39.575Z,2.90
2018-11-26T16:01:10.327Z,2.10
2018-11-26T16:03:41.892Z,2.60
2018-11-26T16:06:12.705Z,2.90
2018-11-26T16:08:43.956Z,2.60
2018-11-26T16:11:15.624Z,2.63
2018-11-26T16:13:46.427Z,4.30
2018-11-26T16:16:17.403Z,2.30
2018-11-26T16:18:48.599Z,2.17
2018-11-26T16:21:20.394Z,5.20
2018-11-26T16:23:51.312Z,3.03
2018-11-26T16:26:22.872Z,2.70
2018-11-26T16:28:54.609Z,3.20
2018-11-26T16:31:26.284Z,3.70
2018-11-26T16:33:57.585Z,4.07
2018-11-26T16:36:29.648Z,3.00
2018-11-26T16:39:01.440Z,4.17
2018-11-26T16:41:33.195Z,4.40
2018-11-26T16:44:04.689Z,3.20
2018-11-26T16:46:35.422Z,2.50
2018-11-26T16:49:10.930Z,3.33
2018-11-26T16:51:41.649Z,2.93
2018-11-26T16:54:13.135Z,3.67
2018-11-26T16:56:44.809Z,2.03
2018-11-26T16:59:16.433Z,3.27
2018-11-26T17:01:47.131Z,4.33
2018-11-26T17:04:18.263Z,3.27
2018-11-26T17:06:49.613Z,2.30
2018-11-26T17:09:20.939Z,2.57
2018-11-26T17:11:51.881Z,2.77
2018-11-26T17:14:24.337Z,4.00
2018-11-26T17:16:58.095Z,2.50
2018-11-26T17:19:30.679Z,1.90
2018-11-26T17:22:01.483Z,1.53
2018-11-26T17:24:32.590Z,2.20
2018-11-26T17:27:05.831Z,2.33
2018-11-26T17:29:36.895Z,3.33
2018-11-26T17:32:07.832Z,2.77
2018-11-26T17:34:39.606Z,3.40
2018-11-26T17:37:10.946Z,2.40
2018-11-26T17:39:42.725Z,3.13
2018-11-26T17:42:15.045Z,2.63
2018-11-26T17:44:46.144Z,4.00
2018-11-26T17:47:17.006Z,2.33
2018-11-26T17:49:48.614Z,2.23
2018-11-26T17:52:19.599Z,2.40
2018-11-26T17:54:50.453Z,2.07
2018-11-26T17:57:21.471Z,2.53
2018-11-26T17:59:53.896Z,1.87
2018-11-26T18:02:24.709Z,1.90
2018-11-26T18:04:55.528Z,2.90
2018-11-26T18:07:26.408Z,2.13
2018-11-26T18:09:58.748Z,2.87
2018-11-26T18:12:31.530Z,2.80
2018-11-26T18:15:05.468Z,3.67
2018-11-26T18:17:36.262Z,6.47
2018-11-26T18:20:14.206Z,1.83
2018-11-26T18:22:47.095Z,2.53
2018-11-26T18:25:19.515Z,3.53
2018-11-26T18:28:02.695Z,3.50
2018-11-26T18:30:37.294Z,2.20
2018-11-26T18:33:08.567Z,3.33
2018-11-26T18:35:40.488Z,2.40
2018-11-26T18:38:12.073Z,4.27
2018-11-26T18:40:45.182Z,3.10
2018-11-26T18:43:16.080Z,3.57
2018-11-26T18:45:48.121Z,2.53
2018-11-26T18:48:19.872Z,3.97
2018-11-26T18:50:50.881Z,3.87
2018-11-26T18:53:22.061Z,2.93
2018-11-26T18:55:52.883Z,3.23
2018-11-26T18:58:23.958Z,3.60
2018-11-26T19:01:00.456Z,3.70
2018-11-26T19:03:31.200Z,2.90
2018-11-26T19:06:03.032Z,2.50
2018-11-26T19:08:34.360Z,2.30
2018-11-26T19:11:15.703Z,2.67
2018-11-26T19:13:56.274Z,2.80
2018-11-26T19:16:34.186Z,2.87
2018-11-26T19:19:06.165Z,2.37
2018-11-26T19:21:37.342Z,3.17
2018-11-26T19:24:10.135Z,3.47
2018-11-26T19:26:41.048Z,3.17
2018-11-26T19:29:13.229Z,2.93
2018-11-26T19:31:48.148Z,3.77
2018-11-26T19:34:18.924Z,2.60
2018-11-26T19:36:50.486Z,4.53
2018-11-26T19:39:21.340Z,5.10
2018-11-26T19:41:52.534Z,5.40
2018-11-26T19:44:23.451Z,3.00
2018-11-26T19:46:54.317Z,2.93
2018-11-26T19:49:25.373Z,2.80
2018-11-26T19:51:57.103Z,3.03
2018-11-26T19:54:27.991Z,3.60
2018-11-26T19:56:59.100Z,4.77
2018-11-26T19:59:29.837Z,4.33
2018-11-26T20:02:00.737Z,6.37
2018-11-26T20:04:38.048Z,4.47
2018-11-26T20:07:10.204Z,3.97
2018-11-26T20:09:43.033Z,2.57
2018-11-26T20:12:15.196Z,3.30
2018-11-26T20:14:46.656Z,3.30
2018-11-26T20:17:18.213Z,2.70
2018-11-26T20:19:49.614Z,3.40
2018-11-26T20:22:21.464Z,3.53
2018-11-26T20:24:52.090Z,4.57
2018-11-26T20:27:22.842Z,4.00
2018-11-26T20:29:54.439Z,3.10
2018-11-26T20:32:30.131Z,3.03
2018-11-26T20:34:56.312Z,2.87
2018-11-26T20:37:27.496Z,3.77
2018-11-26T20:39:59.004Z,5.27
2018-11-26T20:42:30.166Z,3.33
2018-11-26T20:45:01.036Z,3.70
2018-11-26T20:47:32.375Z,2.97
2018-11-26T20:50:03.248Z,3.80
2018-11-26T20:52:34.053Z,2.90
2018-11-26T20:55:06.035Z,3.83
2018-11-26T20:57:36.979Z,3.40
2018-11-26T21:00:29.021Z,4.63
2018-11-26T21:03:07.001Z,3.10
2018-11-26T21:05:37.938Z,2.63
2018-11-26T21:08:09.422Z,4.00
2018-11-26T21:10:40.465Z,4.50
2018-11-26T21:13:16.806Z,3.37
2018-11-26T21:15:42.648Z,3.87
2018-11-26T21:18:15.727Z,4.83
2018-11-26T21:20:50.418Z,3.77
2018-11-26T21:23:27.064Z,3.37
2018-11-26T21:26:00.705Z,5.27
2018-11-26T21:28:32.970Z,4.63
2018-11-26T21:31:04.391Z,4.00
2018-11-26T21:33:38.390Z,5.97
2018-11-26T21:36:09.424Z,5.80
2018-11-26T21:38:52.244Z,4.43
2018-11-26T21:41:24.487Z,5.97
2018-11-26T21:43:55.827Z,4.43
2018-11-26T21:46:26.901Z,5.67
2018-11-26T21:48:57.863Z,6.13
2018-11-26T21:51:29.535Z,3.93
2018-11-26T21:54:00.472Z,4.13
2018-11-26T21:56:32.003Z,5.27
2018-11-26T21:59:03.231Z,5.00
2018-11-26T22:01:34.400Z,4.73
2018-11-26T22:04:05.342Z,4.13
2018-11-26T22:06:36.323Z,3.93
2018-11-26T22:09:10.045Z,4.07
2018-11-26T22:11:41.244Z,3.73
2018-11-26T22:14:12.436Z,5.30
2018-11-26T22:16:43.005Z,4.67
2018-11-26T22:19:14.144Z,6.00
2018-11-26T22:21:45.980Z,4.93
2018-11-26T22:24:17.066Z,4.00
2018-11-26T22:26:48.175Z,5.73
2018-11-26T22:29:19.020Z,5.13
2018-11-26T22:31:50.469Z,2.20
2018-11-26T22:34:21.184Z,5.17
2018-11-26T22:36:52.854Z,3.50
2018-11-26T22:39:24.177Z,3.10
2018-11-26T22:41:55.100Z,3.80
2018-11-26T22:44:26.988Z,5.93
2018-11-26T22:46:59.217Z,2.67
2018-11-26T22:49:30.270Z,3.13
2018-11-26T22:52:01.243Z,4.50
2018-11-26T22:54:32.074Z,4.63
2018-11-26T22:57:02.758Z,4.67
2018-11-26T22:59:33.588Z,3.60
2018-11-26T23:02:04.633Z,6.17
2018-11-26T23:04:35.260Z,3.63
2018-11-26T23:07:06.362Z,3.90
2018-11-26T23:09:38.531Z,3.50
2018-11-26T23:12:09.270Z,4.30
2018-11-26T23:14:40.575Z,4.27
2018-11-26T23:17:11.569Z,3.80
2018-11-26T23:19:42.507Z,4.83
2018-11-26T23:22:13.447Z,3.13
2018-11-26T23:24:44.174Z,4.73
2018-11-26T23:27:21.619Z,5.33
2018-11-26T23:29:52.236Z,6.53
2018-11-26T23:32:22.711Z,6.23
2018-11-26T23:34:53.596Z,8.63
2018-11-26T23:37:26.263Z,4.93
2018-11-26T23:39:57.284Z,5.33
2018-11-26T23:42:27.920Z,5.83
2018-11-26T23:44:59.221Z,6.80
2018-11-26T23:47:30.209Z,6.17
2018-11-26T23:50:00.939Z,7.07
2018-11-26T23:52:31.863Z,6.40
2018-11-26T23:55:03.976Z,5.90
2018-11-26T23:57:34.888Z,7.03
